createdAt,value
2022-12-04T00:01:28.704Z,46.72
2022-12-04T00:04:00.150Z,46.57
2022-12-04T00:06:28.943Z,46.71
2022-12-04T00:08:57.351Z,46.76
2022-12-04T00:11:28.636Z,46.75
2022-12-04T00:14:01.599Z,46.78
2022-12-04T00:16:31.305Z,46.75
2022-12-04T00:18:59.567Z,46.66
2022-12-04T00:21:27.933Z,46.85
2022-12-04T00:23:56.008Z,46.89
2022-12-04T00:26:29.367Z,46.73
2022-12-04T00:28:57.688Z,46.66
2022-12-04T00:31:29.401Z,46.82
2022-12-04T00:33:57.691Z,46.73
2022-12-04T00:36:29.086Z,46.95
2022-12-04T00:38:59.929Z,46.44
2022-12-04T00:41:31.155Z,46.81
2022-12-04T00:44:03.134Z,46.84
2022-12-04T00:46:31.618Z,46.86
2022-12-04T00:48:59.588Z,46.94
2022-12-04T00:51:28.585Z,46.75
2022-12-04T00:53:56.765Z,46.91
2022-12-04T00:56:27.201Z,46.82
2022-12-04T00:58:58.020Z,46.72
2022-12-04T01:01:26.597Z,46.93
2022-12-04T01:03:55.925Z,46.72
2022-12-04T01:06:31.808Z,46.66
2022-12-04T01:09:01.613Z,46.71
2022-12-04T01:11:30.589Z,46.76
2022-12-04T01:13:58.972Z,46.82
2022-12-04T01:16:33.412Z,46.83
2022-12-04T01:19:01.984Z,46.72
2022-12-04T01:21:30.264Z,46.74
2022-12-04T01:23:59.376Z,46.70
2022-12-04T01:26:27.450Z,46.80
2022-12-04T01:28:55.821Z,47.05
2022-12-04T01:31:24.550Z,46.72
2022-12-04T01:33:53.184Z,46.57
2022-12-04T01:36:23.990Z,46.57
2022-12-04T01:38:52.422Z,46.37
2022-12-04T01:41:27.696Z,46.39
2022-12-04T01:44:16.728Z,46.29
2022-12-04T01:46:55.947Z,46.44
2022-12-04T01:49:52.257Z,46.23
2022-12-04T01:52:24.111Z,46.06
2022-12-04T01:54:59.981Z,45.90
2022-12-04T01:57:32.662Z,46.12
2022-12-04T02:00:06.469Z,46.31
2022-12-04T02:02:46.889Z,46.21
2022-12-04T02:05:19.510Z,46.15
2022-12-04T02:07:51.197Z,46.08
2022-12-04T02:10:21.492Z,46.18
2022-12-04T02:13:33.365Z,46.36
2022-12-04T02:16:32.423Z,46.20
2022-12-04T02:19:03.294Z,46.10
2022-12-04T02:21:38.557Z,46.32
2022-12-04T02:24:38.226Z,46.59
2022-12-04T02:27:14.488Z,46.65
2022-12-04T02:29:55.494Z,46.60
2022-12-04T02:32:38.577Z,46.55
2022-12-04T02:35:14.879Z,46.75
2022-12-04T02:37:50.792Z,46.53
2022-12-04T02:40:29.174Z,46.66
2022-12-04T02:43:03.857Z,46.52
2022-12-04T02:45:39.818Z,46.61
2022-12-04T02:48:08.888Z,46.74
2022-12-04T02:50:40.909Z,46.83
2022-12-04T02:53:13.539Z,46.84
2022-12-04T02:55:51.054Z,46.93
2022-12-04T02:58:34.240Z,46.70
2022-12-04T03:01:08.930Z,46.85
2022-12-04T03:03:37.771Z,46.93
2022-12-04T03:06:11.212Z,46.96
2022-12-04T03:08:46.508Z,47.10
2022-12-04T03:11:14.784Z,47.12
2022-12-04T03:13:57.083Z,47.02
2022-12-04T03:16:36.157Z,47.04
2022-12-04T03:19:28.246Z,46.93
2022-12-04T03:22:04.496Z,46.95
2022-12-04T03:24:59.587Z,47.05
2022-12-04T03:27:34.723Z,47.00
2022-12-04T03:30:16.009Z,47.10
2022-12-04T03:33:16.628Z,47.17
2022-12-04T03:35:48.014Z,47.08
2022-12-04T03:38:24.229Z,47.18
2022-12-04T03:41:04.292Z,47.00
2022-12-04T03:43:36.472Z,47.31
2022-12-04T03:46:11.880Z,47.19
2022-12-04T03:48:49.385Z,47.10
2022-12-04T03:51:27.593Z,47.26
2022-12-04T03:54:05.674Z,47.03
2022-12-04T03:56:43.498Z,47.12
2022-12-04T03:59:27.136Z,47.15
2022-12-04T04:02:00.151Z,47.23
2022-12-04T04:04:35.534Z,47.18
2022-12-04T04:07:12.230Z,47.09
2022-12-04T04:09:45.523Z,47.39
2022-12-04T04:12:28.027Z,47.52
2022-12-04T04:15:03.475Z,47.68
2022-12-04T04:17:38.686Z,47.36
2022-12-04T04:20:15.410Z,47.21
2022-12-04T04:22:45.618Z,46.96
2022-12-04T04:25:19.691Z,46.94
2022-12-04T04:27:56.089Z,47.18
2022-12-04T04:30:25.288Z,47.14
2022-12-04T04:33:13.320Z,46.84
2022-12-04T04:36:27.139Z,47.02
2022-12-04T04:39:12.713Z,47.10
2022-12-04T04:41:56.651Z,47.07
2022-12-04T04:45:12.517Z,47.17
2022-12-04T04:48:00.344Z,47.04
2022-12-04T04:50:30.264Z,47.14
2022-12-04T04:53:03.727Z,47.39
2022-12-04T04:55:34.447Z,47.63
2022-12-04T04:58:29.998Z,47.71
2022-12-04T05:01:04.938Z,47.73
2022-12-04T05:03:33.211Z,47.43
2022-12-04T05:21:30.681Z,47.51
2022-12-04T05:23:58.858Z,47.36
2022-12-04T05:26:27.201Z,47.46
2022-12-04T05:28:55.215Z,47.37
2022-12-04T05:31:23.378Z,47.55
2022-12-04T05:33:51.673Z,47.63
2022-12-04T05:36:19.851Z,47.41
2022-12-04T05:38:47.979Z,47.52
2022-12-04T05:41:16.106Z,47.23
2022-12-04T05:43:44.284Z,47.46
2022-12-04T05:46:12.493Z,47.59
2022-12-04T05:48:40.742Z,47.24
2022-12-04T05:51:10.871Z,47.42
2022-12-04T05:53:39.059Z,47.60
2022-12-04T05:56:08.197Z,47.44
2022-12-04T05:58:37.777Z,47.62
2022-12-04T06:01:15.119Z,47.69
2022-12-04T06:03:43.845Z,47.72
2022-12-04T06:06:22.219Z,47.86
2022-12-04T06:08:52.270Z,48.03
2022-12-04T06:11:23.511Z,48.18
2022-12-04T06:13:52.203Z,48.37
2022-12-04T06:16:23.485Z,48.45
2022-12-04T06:18:53.911Z,48.35
2022-12-04T06:21:24.309Z,48.44
2022-12-04T06:23:53.719Z,48.38
2022-12-04T06:26:22.824Z,48.34
2022-12-04T06:28:54.383Z,48.37
2022-12-04T06:31:23.318Z,48.55
2022-12-04T06:33:53.694Z,48.49
2022-12-04T06:36:22.568Z,48.50
2022-12-04T06:38:51.857Z,48.83
2022-12-04T06:41:21.709Z,48.92
2022-12-04T06:43:51.012Z,48.58
2022-12-04T06:46:24.585Z,48.70
2022-12-04T06:48:55.984Z,48.55
2022-12-04T06:51:27.110Z,48.50
2022-12-04T06:53:55.805Z,48.48
2022-12-04T06:56:26.848Z,48.46
2022-12-04T06:58:57.318Z,48.49
2022-12-04T07:01:28.401Z,48.23
2022-12-04T07:03:57.315Z,48.18
2022-12-04T07:06:32.046Z,48.23
2022-12-04T07:09:18.851Z,48.11
2022-12-04T07:11:47.126Z,48.17
2022-12-04T07:14:15.317Z,48.40
2022-12-04T07:16:43.848Z,48.49
2022-12-04T07:19:14.267Z,48.89
2022-12-04T07:21:43.011Z,48.82
2022-12-04T07:24:17.233Z,48.77
2022-12-04T07:26:45.901Z,48.74
2022-12-04T07:29:14.202Z,48.73
2022-12-04T07:31:42.768Z,48.88
2022-12-04T07:34:10.967Z,48.92
2022-12-04T07:36:40.163Z,48.73
2022-12-04T07:39:08.344Z,48.96
2022-12-04T07:41:36.319Z,48.95
2022-12-04T07:44:04.732Z,48.62
2022-12-04T07:46:33.032Z,48.38
2022-12-04T07:49:01.162Z,48.24
2022-12-04T07:51:29.968Z,47.96
2022-12-04T07:54:02.784Z,47.39
2022-12-04T07:56:32.959Z,46.95
2022-12-04T07:59:01.763Z,46.96
2022-12-04T08:01:30.901Z,46.49
2022-12-04T08:04:00.735Z,46.23
2022-12-04T08:06:30.572Z,46.23
2022-12-04T08:08:58.711Z,45.67
2022-12-04T08:11:28.042Z,45.54
2022-12-04T08:13:57.833Z,45.37
2022-12-04T08:16:27.639Z,44.99
2022-12-04T08:18:56.389Z,44.94
2022-12-04T08:21:27.568Z,45.08
2022-12-04T08:23:56.846Z,44.75
2022-12-04T08:26:27.794Z,45.01
2022-12-04T08:28:57.601Z,44.75
2022-12-04T08:31:28.268Z,44.37
2022-12-04T08:33:58.359Z,44.54
2022-12-04T08:36:28.067Z,44.23
2022-12-04T08:38:56.553Z,44.18
2022-12-04T08:41:25.753Z,44.18
2022-12-04T08:43:55.991Z,44.05
2022-12-04T08:46:26.063Z,43.93
2022-12-04T08:48:54.699Z,44.28
2022-12-04T08:51:29.523Z,44.19
2022-12-04T08:54:00.460Z,44.38
2022-12-04T08:56:30.788Z,44.24
2022-12-04T08:59:00.273Z,44.06
2022-12-04T09:01:29.573Z,43.82
2022-12-04T09:03:58.446Z,44.16
2022-12-04T09:06:26.679Z,44.22
2022-12-04T09:08:57.102Z,44.06
2022-12-04T09:11:27.538Z,44.37
2022-12-04T09:13:55.715Z,44.33
2022-12-04T09:16:25.289Z,44.12
2022-12-04T09:18:54.426Z,44.44
2022-12-04T09:21:23.987Z,44.08
2022-12-04T09:23:52.318Z,44.01
2022-12-04T09:26:29.812Z,44.21
2022-12-04T09:28:58.907Z,44.16
2022-12-04T09:31:27.899Z,44.29
2022-12-04T09:33:58.965Z,44.22
2022-12-04T09:36:28.149Z,44.43
2022-12-04T09:38:57.567Z,44.16
2022-12-04T09:42:06.368Z,44.35
2022-12-04T09:44:42.738Z,44.30
2022-12-04T09:47:23.420Z,44.75
2022-12-04T09:50:15.212Z,44.27
2022-12-04T09:52:58.746Z,44.57
2022-12-04T09:55:36.486Z,44.14
2022-12-04T09:58:07.429Z,44.39
2022-12-04T10:00:40.772Z,44.35
2022-12-04T10:03:16.142Z,44.64
2022-12-04T10:06:02.511Z,44.81
2022-12-04T10:08:42.628Z,45.07
2022-12-04T10:11:17.186Z,45.19
2022-12-04T10:14:06.334Z,45.29
2022-12-04T10:16:47.810Z,45.13
2022-12-04T10:19:40.850Z,44.77
2022-12-04T10:22:24.293Z,44.84
2022-12-04T10:24:52.460Z,44.87
2022-12-04T10:27:20.636Z,44.70
2022-12-04T10:29:53.544Z,44.67
2022-12-04T10:32:33.428Z,44.54
2022-12-04T10:35:24.369Z,44.75
2022-12-04T10:38:11.475Z,44.87
2022-12-04T10:48:40.632Z,44.00
2022-12-04T10:51:17.477Z,44.13
2022-12-04T10:53:46.798Z,43.78
2022-12-04T10:56:21.015Z,43.75
2022-12-04T10:59:15.905Z,43.35
2022-12-04T11:01:45.054Z,43.10
2022-12-04T11:04:28.179Z,42.99
2022-12-04T11:07:20.765Z,42.89
2022-12-04T11:10:17.384Z,42.59
2022-12-04T11:12:58.980Z,42.21
2022-12-04T11:15:27.861Z,42.28
2022-12-04T11:18:06.681Z,42.14
2022-12-04T11:20:35.166Z,41.96
2022-12-04T11:23:05.188Z,41.72
2022-12-04T11:25:45.219Z,41.82
2022-12-04T11:28:39.899Z,42.07
2022-12-04T11:31:11.004Z,42.51
2022-12-04T11:33:47.858Z,42.41
2022-12-04T11:36:24.635Z,42.47
2022-12-04T11:39:03.139Z,42.80
2022-12-04T11:41:33.353Z,43.01
2022-12-04T11:44:01.529Z,43.21
2022-12-04T11:46:32.160Z,43.48
2022-12-04T11:49:01.573Z,43.37
2022-12-04T11:51:44.689Z,43.34
2022-12-04T11:54:28.525Z,43.68
2022-12-04T11:57:31.030Z,44.03
2022-12-04T12:00:05.015Z,43.48
2022-12-04T12:02:51.298Z,42.71
2022-12-04T12:05:47.811Z,42.39
2022-12-04T12:08:37.486Z,41.93
2022-12-04T12:11:13.851Z,41.38
2022-12-04T12:13:47.754Z,40.63
2022-12-04T12:16:38.171Z,40.28
2022-12-04T12:19:18.398Z,39.91
2022-12-04T12:22:05.553Z,39.24
2022-12-04T12:24:49.911Z,38.41
2022-12-04T12:27:44.139Z,38.22
2022-12-04T12:30:19.481Z,38.37
2022-12-04T12:33:09.338Z,37.93
2022-12-04T12:36:00.952Z,37.70
2022-12-04T12:38:39.081Z,36.91
2022-12-04T12:41:17.876Z,36.30
2022-12-04T12:44:12.160Z,36.11
2022-12-04T12:46:53.425Z,36.10
2022-12-04T12:49:31.738Z,34.85
2022-12-04T12:52:07.494Z,33.84
2022-12-04T12:54:54.902Z,34.70
2022-12-04T12:57:33.828Z,34.23
2022-12-04T13:00:04.665Z,34.40
2022-12-04T13:02:57.867Z,33.92
2022-12-04T13:05:33.480Z,33.36
2022-12-04T13:08:09.894Z,33.32
2022-12-04T13:10:46.140Z,32.81
2022-12-04T13:13:34.700Z,32.09
2022-12-04T13:16:14.928Z,31.73
2022-12-04T13:18:59.898Z,33.29
2022-12-04T13:21:39.924Z,32.24
2022-12-04T13:24:31.609Z,32.46
2022-12-04T13:27:18.529Z,33.09
2022-12-04T13:29:53.383Z,33.42
2022-12-04T13:32:43.839Z,33.85
2022-12-04T13:35:12.012Z,33.49
2022-12-04T13:37:47.295Z,33.94
2022-12-04T13:40:15.228Z,34.05
2022-12-04T13:42:44.121Z,34.06
2022-12-04T13:45:27.523Z,34.45
2022-12-04T13:48:00.401Z,34.75
2022-12-04T13:50:29.126Z,34.23
2022-12-04T13:52:57.305Z,34.16
2022-12-04T13:55:40.812Z,33.96
2022-12-04T13:58:11.670Z,34.92
2022-12-04T14:00:42.409Z,34.08
2022-12-04T14:03:30.242Z,34.04
2022-12-04T14:05:58.309Z,34.10
2022-12-04T14:08:32.992Z,33.72
2022-12-04T14:11:14.224Z,34.08
2022-12-04T14:13:45.051Z,34.12
2022-12-04T14:16:44.605Z,34.08
2022-12-04T14:19:29.511Z,34.00
2022-12-04T14:21:57.787Z,34.06
2022-12-04T14:24:30.536Z,34.18
2022-12-04T14:27:14.833Z,34.53
2022-12-04T14:29:54.774Z,34.36
2022-12-04T14:32:26.237Z,34.74
2022-12-04T14:34:56.027Z,34.91
2022-12-04T14:37:35.849Z,34.78
2022-12-04T14:40:07.197Z,34.64
2022-12-04T14:42:39.925Z,34.21
2022-12-04T14:45:57.321Z,34.64
2022-12-04T14:48:53.425Z,34.92
2022-12-04T14:51:49.687Z,34.88
2022-12-04T14:54:20.880Z,35.49
2022-12-04T14:57:26.410Z,35.78
2022-12-04T14:59:56.041Z,35.79
2022-12-04T15:02:34.950Z,35.83
2022-12-04T15:05:03.798Z,36.00
2022-12-04T15:07:33.074Z,36.05
2022-12-04T15:10:14.112Z,36.14
2022-12-04T15:12:49.458Z,36.62
2022-12-04T15:15:25.125Z,36.76
2022-12-04T15:18:00.652Z,36.44
2022-12-04T15:20:38.664Z,36.97
2022-12-04T15:23:07.452Z,36.18
2022-12-04T15:25:45.707Z,36.69
2022-12-04T15:28:21.712Z,36.87
2022-12-04T15:30:52.697Z,36.73
2022-12-04T15:33:28.921Z,37.00
2022-12-04T15:36:02.019Z,37.20
2022-12-04T15:38:30.181Z,37.27
2022-12-04T15:41:00.714Z,37.57
2022-12-04T15:43:43.719Z,37.79
2022-12-04T15:46:22.463Z,38.32
2022-12-04T15:48:50.732Z,38.56
2022-12-04T15:51:21.364Z,38.62
2022-12-04T15:53:49.867Z,38.96
2022-12-04T15:56:21.661Z,38.92
2022-12-04T15:59:02.068Z,39.14
2022-12-04T16:01:39.848Z,39.13
2022-12-04T16:04:20.663Z,39.34
2022-12-04T16:06:51.622Z,39.38
2022-12-04T16:09:27.792Z,39.51
2022-12-04T16:12:03.939Z,39.47
2022-12-04T16:14:32.180Z,39.57
2022-12-04T16:17:05.913Z,39.69
2022-12-04T16:19:40.568Z,40.11
2022-12-04T16:22:20.607Z,40.49
2022-12-04T16:24:49.548Z,40.85
2022-12-04T16:27:22.895Z,40.79
2022-12-04T16:29:52.661Z,41.25
2022-12-04T16:32:24.541Z,41.34
2022-12-04T16:34:53.062Z,41.52
2022-12-04T16:37:22.785Z,42.05
2022-12-04T16:39:51.111Z,41.99
2022-12-04T16:42:25.651Z,42.16
2022-12-04T16:44:54.527Z,42.31
2022-12-04T16:47:22.704Z,43.03
2022-12-04T16:49:51.932Z,43.08
2022-12-04T16:52:20.699Z,42.92
2022-12-04T16:54:48.872Z,43.07
2022-12-04T16:57:17.312Z,43.43
2022-12-04T16:59:45.761Z,43.28
2022-12-04T17:02:22.822Z,43.56
2022-12-04T17:04:57.081Z,43.57
2022-12-04T17:07:25.794Z,43.44
2022-12-04T17:09:53.702Z,43.40
2022-12-04T17:12:21.881Z,43.52
2022-12-04T17:14:50.468Z,43.51
2022-12-04T17:17:18.650Z,43.50
2022-12-04T17:19:46.742Z,43.65
2022-12-04T17:22:15.311Z,43.74
2022-12-04T17:24:49.093Z,43.62
2022-12-04T17:27:21.594Z,43.78
2022-12-04T17:29:49.771Z,43.88
2022-12-04T17:32:17.847Z,43.91
2022-12-04T17:34:46.333Z,43.98
2022-12-04T17:37:14.512Z,44.04
2022-12-04T17:39:42.616Z,44.04
2022-12-04T17:42:11.104Z,43.87
2022-12-04T17:44:39.357Z,44.15
2022-12-04T17:47:07.680Z,43.89
2022-12-04T17:49:36.425Z,44.11
2022-12-04T17:52:04.933Z,44.34
2022-12-04T17:54:34.829Z,44.75
2022-12-04T17:57:03.623Z,44.81
2022-12-04T17:59:32.112Z,44.72
2022-12-04T18:02:00.284Z,44.93
2022-12-04T18:04:28.762Z,45.04
2022-12-04T18:06:56.850Z,45.25
2022-12-04T18:09:24.930Z,45.23
2022-12-04T18:11:53.100Z,45.35
2022-12-04T18:14:21.178Z,45.50
2022-12-04T18:16:52.333Z,45.59
2022-12-04T18:19:23.475Z,45.54
2022-12-04T18:21:51.858Z,45.53
2022-12-04T18:24:20.860Z,45.81
2022-12-04T18:26:50.987Z,45.93
2022-12-04T18:29:22.328Z,45.67
2022-12-04T18:31:51.723Z,45.91
2022-12-04T18:34:20.621Z,45.96
2022-12-04T18:36:49.925Z,45.97
2022-12-04T18:39:21.124Z,45.75
2022-12-04T18:41:49.458Z,46.08
2022-12-04T18:44:18.145Z,45.89
2022-12-04T18:46:46.326Z,46.11
2022-12-04T18:49:14.605Z,46.07
2022-12-04T18:51:49.345Z,46.39
2022-12-04T18:54:24.060Z,46.26
2022-12-04T18:56:52.151Z,46.28
2022-12-04T18:59:26.767Z,45.92
2022-12-04T19:01:55.965Z,46.48
2022-12-04T19:04:25.165Z,46.31
2022-12-04T19:06:56.121Z,46.48
2022-12-04T19:10:02.037Z,46.29
2022-12-04T19:12:17.275Z,45.79
2022-12-04T19:14:45.611Z,45.88
2022-12-04T19:17:13.907Z,46.17
2022-12-04T19:19:42.379Z,46.46
2022-12-04T19:22:10.559Z,46.67
2022-12-04T19:24:38.635Z,46.51
2022-12-04T19:27:07.123Z,46.34
2022-12-04T19:29:35.703Z,46.23
2022-12-04T19:32:04.228Z,46.64
2022-12-04T19:34:32.882Z,46.43
2022-12-04T19:37:01.370Z,46.24
2022-12-04T19:39:29.448Z,46.77
2022-12-04T19:41:57.846Z,46.60
2022-12-04T19:44:47.816Z,46.53
2022-12-04T19:47:14.144Z,46.49
2022-12-04T19:49:42.217Z,46.95
2022-12-04T19:52:10.390Z,46.88
2022-12-04T19:54:38.976Z,46.43
2022-12-04T19:57:07.167Z,46.64
2022-12-04T19:59:38.587Z,46.67
2022-12-04T20:02:11.446Z,46.77
2022-12-04T20:04:39.977Z,46.89
2022-12-04T20:07:08.381Z,46.57
2022-12-04T20:09:36.860Z,46.67
2022-12-04T20:12:05.327Z,46.89
2022-12-04T20:14:33.409Z,46.37
2022-12-04T20:17:01.956Z,46.26
2022-12-04T20:19:30.071Z,46.37
2022-12-04T20:21:59.619Z,45.90
2022-12-04T20:24:27.963Z,46.98
2022-12-04T20:26:56.248Z,46.82
2022-12-04T20:29:25.039Z,46.87
2022-12-04T20:31:53.216Z,47.09
2022-12-04T20:34:21.598Z,46.55
2022-12-04T20:36:49.682Z,46.52
2022-12-04T20:39:20.327Z,46.71
2022-12-04T20:41:48.797Z,46.33
2022-12-04T20:44:19.239Z,46.31
2022-12-04T20:46:48.636Z,46.06
2022-12-04T20:49:21.733Z,46.27
2022-12-04T20:51:51.919Z,46.43
2022-12-04T20:54:22.241Z,46.24
2022-12-04T20:56:51.485Z,46.01
2022-12-04T20:59:22.004Z,45.87
2022-12-04T21:01:50.676Z,46.52
2022-12-04T21:04:20.001Z,46.21
2022-12-04T21:06:48.280Z,45.89
2022-12-04T21:09:22.977Z,46.01
2022-12-04T21:11:53.743Z,46.08
2022-12-04T21:14:28.416Z,46.79
2022-12-04T21:16:57.165Z,45.99
2022-12-04T21:19:26.123Z,46.13
2022-12-04T21:21:55.054Z,46.40
2022-12-04T21:24:26.347Z,46.16
2022-12-04T21:26:55.605Z,46.61
2022-12-04T21:29:23.789Z,46.16
2022-12-04T21:31:52.274Z,46.23
2022-12-04T21:34:20.349Z,46.40
2022-12-04T21:36:48.730Z,46.41
2022-12-04T21:39:16.907Z,46.59
2022-12-04T21:41:45.289Z,46.54
2022-12-04T21:44:15.823Z,46.61
2022-12-04T21:46:45.572Z,46.15
2022-12-04T21:49:14.541Z,46.47
2022-12-04T21:51:59.374Z,46.40
2022-12-04T21:54:28.682Z,46.53
2022-12-04T21:56:57.596Z,46.58
2022-12-04T21:59:26.349Z,46.31
2022-12-04T22:01:54.744Z,46.15
2022-12-04T22:04:23.166Z,46.38
2022-12-04T22:06:51.533Z,46.24
2022-12-04T22:09:20.195Z,46.05
2022-12-04T22:11:48.300Z,46.75
2022-12-04T22:14:16.476Z,46.50
2022-12-04T22:16:44.934Z,46.14
2022-12-04T22:19:13.447Z,46.40
2022-12-04T22:21:41.623Z,46.21
2022-12-04T22:24:10.338Z,46.47
2022-12-04T22:26:38.596Z,46.05
2022-12-04T22:29:27.154Z,46.00
2022-12-04T22:31:55.272Z,46.15
2022-12-04T22:34:23.699Z,45.82
2022-12-04T22:36:51.775Z,45.99
2022-12-04T22:39:19.956Z,46.05
2022-12-04T22:41:48.029Z,45.78
2022-12-04T22:44:16.314Z,45.86
2022-12-04T22:46:44.716Z,45.77
2022-12-04T22:49:12.871Z,45.81
2022-12-04T22:51:41.360Z,45.71
2022-12-04T22:54:13.995Z,46.09
2022-12-04T22:56:42.231Z,45.85
2022-12-04T22:59:10.419Z,45.83
2022-12-04T23:01:38.681Z,46.37
2022-12-04T23:04:06.751Z,45.62
2022-12-04T23:06:34.829Z,45.68
2022-12-04T23:09:07.512Z,45.68
2022-12-04T23:11:36.298Z,45.52
2022-12-04T23:14:06.366Z,45.68
2022-12-04T23:16:36.932Z,45.38
2022-12-04T23:19:07.261Z,45.63
2022-12-04T23:21:35.771Z,45.56
2022-12-04T23:24:04.456Z,45.69
2022-12-04T23:26:38.476Z,45.97
2022-12-04T23:29:29.766Z,46.03
2022-12-04T23:31:55.841Z,46.12
2022-12-04T23:34:24.086Z,45.61
2022-12-04T23:36:52.174Z,44.90
2022-12-04T23:39:20.138Z,45.51
2022-12-04T23:41:48.419Z,45.42
2022-12-04T23:44:16.702Z,45.31
2022-12-04T23:46:44.893Z,45.11
2022-12-04T23:49:13.154Z,45.19
2022-12-04T23:51:42.691Z,45.17
2022-12-04T23:54:10.844Z,45.12
2022-12-04T23:56:39.373Z,45.14
2022-12-04T23:59:07.711Z,45.17
